Time;durP1;ratioP1;P1;durP2;ratioP2;P2;SDS_P1;SDS_P2;PMS_P1;PMS_P2;Temp;Humidity;BMP_temperature;BMP_pressure;BME280_temperature;BME280_humidity;BME280_pressure;Samples;Min_cycle;Max_cycle;Signal;HPM_P1;HPM_P2
2021/04/24 00:01:35;;;;;;;2.13;1.85;;;;;;;19.62;41.49;101196.65;;;;-57
2021/04/24 00:04:35;;;;;;;2.04;1.84;;;;;;;19.60;41.56;101199.62;;;;-56
2021/04/24 00:07:35;;;;;;;2.28;1.80;;;;;;;19.59;41.51;101197.91;;;;-52
2021/04/24 00:10:35;;;;;;;3.05;2.01;;;;;;;19.58;41.51;101202.27;;;;-56
2021/04/24 00:13:35;;;;;;;2.30;2.10;;;;;;;19.56;41.56;101200.44;;;;-57
2021/04/24 00:16:35;;;;;;;2.67;1.81;;;;;;;19.56;41.53;101201.01;;;;-51
2021/04/24 00:19:35;;;;;;;1.96;1.70;;;;;;;19.54;41.52;101195.93;;;;-52
2021/04/24 00:22:35;;;;;;;2.11;1.91;;;;;;;19.53;41.56;101196.17;;;;-52
2021/04/24 00:25:35;;;;;;;2.20;1.97;;;;;;;19.51;41.55;101195.00;;;;-52
2021/04/24 00:28:35;;;;;;;2.18;1.89;;;;;;;19.50;41.54;101194.64;;;;-53
2021/04/24 00:31:35;;;;;;;2.07;1.87;;;;;;;19.50;41.56;101193.34;;;;-57
2021/04/24 00:34:35;;;;;;;1.95;1.80;;;;;;;19.49;41.54;101191.39;;;;-56
2021/04/24 00:37:35;;;;;;;1.91;1.77;;;;;;;19.47;41.56;101193.14;;;;-52
2021/04/24 00:40:35;;;;;;;2.09;1.87;;;;;;;19.46;41.59;101192.61;;;;-57
2021/04/24 00:43:35;;;;;;;2.00;1.80;;;;;;;19.45;41.54;101193.75;;;;-56
2021/04/24 00:46:35;;;;;;;2.17;1.79;;;;;;;19.45;41.56;101191.88;;;;-56
2021/04/24 00:49:35;;;;;;;2.16;1.80;;;;;;;19.43;41.54;101188.91;;;;-52
2021/04/24 00:52:35;;;;;;;1.99;1.72;;;;;;;19.41;41.60;101187.25;;;;-53
2021/04/24 00:55:35;;;;;;;1.99;1.83;;;;;;;19.41;41.59;101180.27;;;;-51
2021/04/24 00:58:35;;;;;;;2.22;1.78;;;;;;;19.39;41.54;101183.56;;;;-56
2021/04/24 01:01:35;;;;;;;2.11;1.91;;;;;;;19.39;41.57;101181.52;;;;-56
2021/04/24 01:04:35;;;;;;;1.84;1.74;;;;;;;19.38;41.55;101176.81;;;;-53
2021/04/24 01:07:35;;;;;;;1.75;1.65;;;;;;;19.36;41.61;101179.53;;;;-57
2021/04/24 01:10:35;;;;;;;2.03;1.83;;;;;;;19.35;41.55;101178.20;;;;-53
2021/04/24 01:13:35;;;;;;;2.00;1.80;;;;;;;19.34;41.58;101178.81;;;;-52
2021/04/24 01:16:35;;;;;;;2.47;1.97;;;;;;;19.33;41.63;101178.24;;;;-52
2021/04/24 01:19:35;;;;;;;2.16;1.84;;;;;;;19.31;41.61;101173.17;;;;-51
2021/04/24 01:22:35;;;;;;;2.11;1.91;;;;;;;19.31;41.61;101174.95;;;;-57
2021/04/24 01:25:35;;;;;;;2.07;1.87;;;;;;;19.29;41.55;101168.50;;;;-57
2021/04/24 01:28:35;;;;;;;2.60;1.99;;;;;;;19.28;41.60;101167.68;;;;-57
2021/04/24 01:31:35;;;;;;;2.14;1.85;;;;;;;19.28;41.64;101168.81;;;;-57
2021/04/24 01:34:35;;;;;;;2.01;1.81;;;;;;;19.27;41.59;101164.88;;;;-52
2021/04/24 01:37:35;;;;;;;1.89;1.73;;;;;;;19.27;41.63;101167.80;;;;-51
2021/04/24 01:40:35;;;;;;;2.31;1.70;;;;;;;19.25;41.61;101165.82;;;;-57
2021/04/24 01:43:35;;;;;;;1.87;1.77;;;;;;;19.24;41.63;101161.34;;;;-52
2021/04/24 01:46:35;;;;;;;1.92;1.72;;;;;;;19.23;41.60;101161.39;;;;-57
2021/04/24 01:49:35;;;;;;;2.00;1.80;;;;;;;19.22;41.59;101159.03;;;;-52
2021/04/24 01:52:35;;;;;;;3.01;1.75;;;;;;;19.21;41.64;101161.76;;;;-52
2021/04/24 01:55:35;;;;;;;2.07;1.87;;;;;;;19.21;41.58;101158.19;;;;-51
2021/04/24 01:58:35;;;;;;;2.03;1.86;;;;;;;19.20;41.60;101155.50;;;;-52
2021/04/24 02:01:34;;;;;;;1.91;1.77;;;;;;;19.20;41.64;101157.53;;;;-56
2021/04/24 02:04:35;;;;;;;2.64;1.73;;;;;;;19.18;41.62;101155.55;;;;-52
2021/04/24 02:07:35;;;;;;;1.98;1.79;;;;;;;19.17;41.57;101155.05;;;;-56
2021/04/24 02:10:35;;;;;;;1.80;1.70;;;;;;;19.17;41.58;101154.38;;;;-57
2021/04/24 02:13:35;;;;;;;1.89;1.70;;;;;;;19.17;41.56;101148.92;;;;-56
2021/04/24 02:16:35;;;;;;;2.10;1.90;;;;;;;19.16;41.56;101146.65;;;;-52
2021/04/24 02:19:35;;;;;;;1.81;1.70;;;;;;;19.15;41.62;101144.91;;;;-51
2021/04/24 02:22:35;;;;;;;2.20;1.70;;;;;;;19.14;41.63;101140.11;;;;-52
2021/04/24 02:25:35;;;;;;;2.12;1.92;;;;;;;19.13;41.57;101140.16;;;;-51
2021/04/24 02:28:35;;;;;;;2.09;1.89;;;;;;;19.12;41.59;101134.14;;;;-52
2021/04/24 02:31:35;;;;;;;2.16;1.89;;;;;;;19.12;41.63;101134.95;;;;-51
2021/04/24 02:34:35;;;;;;;2.09;1.90;;;;;;;19.10;41.62;101133.94;;;;-56
2021/04/24 02:37:35;;;;;;;2.05;1.80;;;;;;;19.09;41.56;101133.13;;;;-56
2021/04/24 02:40:35;;;;;;;1.75;1.65;;;;;;;19.09;41.63;101138.78;;;;-52
2021/04/24 02:43:34;;;;;;;1.87;1.70;;;;;;;19.07;41.64;101138.86;;;;-52
2021/04/24 02:46:35;;;;;;;2.99;1.90;;;;;;;19.08;41.60;101140.73;;;;-53
2021/04/24 02:49:35;;;;;;;2.00;1.80;;;;;;;19.07;41.61;101131.67;;;;-57
2021/04/24 02:52:35;;;;;;;2.10;1.90;;;;;;;19.06;41.59;101129.16;;;;-57
2021/04/24 02:55:35;;;;;;;2.05;1.85;;;;;;;19.06;41.67;101132.56;;;;-57
2021/04/24 02:58:35;;;;;;;2.10;1.90;;;;;;;19.05;41.61;101134.76;;;;-55
2021/04/24 03:01:35;;;;;;;2.01;1.80;;;;;;;19.05;41.60;101136.10;;;;-57
2021/04/24 03:04:35;;;;;;;1.80;1.69;;;;;;;19.04;41.60;101141.30;;;;-53
2021/04/24 03:07:35;;;;;;;1.78;1.68;;;;;;;19.03;41.61;101140.08;;;;-57
2021/04/24 03:10:35;;;;;;;2.23;1.89;;;;;;;19.02;41.61;101148.81;;;;-56
2021/04/24 03:13:35;;;;;;;1.88;1.71;;;;;;;19.01;41.62;101146.38;;;;-57
2021/04/24 03:16:35;;;;;;;2.01;1.83;;;;;;;19.00;41.58;101141.95;;;;-56
2021/04/24 03:19:35;;;;;;;2.11;1.80;;;;;;;19.00;41.62;101145.04;;;;-51
2021/04/24 03:22:35;;;;;;;2.09;1.91;;;;;;;18.99;41.63;101142.76;;;;-51
2021/04/24 03:25:35;;;;;;;1.91;1.80;;;;;;;18.97;41.63;101149.14;;;;-52
2021/04/24 03:28:35;;;;;;;2.03;1.83;;;;;;;18.97;41.64;101153.52;;;;-53
2021/04/24 03:31:35;;;;;;;1.93;1.79;;;;;;;18.96;41.61;101146.83;;;;-52
2021/04/24 03:34:35;;;;;;;2.04;1.84;;;;;;;18.96;41.60;101147.23;;;;-51
2021/04/24 03:37:35;;;;;;;1.99;1.80;;;;;;;18.95;41.59;101144.88;;;;-51
2021/04/24 03:40:35;;;;;;;1.97;1.77;;;;;;;18.95;41.64;101140.33;;;;-51
2021/04/24 03:43:35;;;;;;;2.17;1.97;;;;;;;18.94;41.58;101141.42;;;;-51
2021/04/24 03:46:35;;;;;;;1.86;1.73;;;;;;;18.93;41.61;101145.00;;;;-52
2021/04/24 03:49:35;;;;;;;1.83;1.71;;;;;;;18.93;41.59;101148.09;;;;-52
2021/04/24 03:52:35;;;;;;;2.06;1.87;;;;;;;18.92;41.58;101150.48;;;;-56
2021/04/24 03:55:35;;;;;;;2.25;1.83;;;;;;;18.91;41.60;101153.00;;;;-57
2021/04/24 03:58:35;;;;;;;1.96;1.82;;;;;;;18.90;41.55;101152.64;;;;-56
2021/04/24 04:01:35;;;;;;;1.88;1.78;;;;;;;18.90;41.58;101151.50;;;;-57
2021/04/24 04:04:35;;;;;;;1.99;1.87;;;;;;;18.89;41.60;101151.01;;;;-51
2021/04/24 04:07:34;;;;;;;1.89;1.69;;;;;;;18.88;41.62;101154.14;;;;-52
2021/04/24 04:10:35;;;;;;;1.99;1.84;;;;;;;18.87;41.59;101155.68;;;;-56
2021/04/24 04:13:35;;;;;;;1.80;1.70;;;;;;;18.88;41.58;101155.77;;;;-56
2021/04/24 04:16:35;;;;;;;1.93;1.82;;;;;;;18.87;41.61;101156.81;;;;-56
2021/04/24 04:19:35;;;;;;;2.03;1.90;;;;;;;18.86;41.58;101157.10;;;;-56
2021/04/24 04:22:35;;;;;;;1.91;1.81;;;;;;;18.86;41.59;101163.36;;;;-51
2021/04/24 04:25:35;;;;;;;2.09;1.87;;;;;;;18.85;41.60;101166.03;;;;-52
2021/04/24 04:28:35;;;;;;;2.09;1.90;;;;;;;18.84;41.59;101166.89;;;;-51
2021/04/24 04:31:35;;;;;;;1.92;1.82;;;;;;;18.83;41.61;101173.46;;;;-53
2021/04/24 04:34:35;;;;;;;1.98;1.79;;;;;;;18.83;41.63;101180.77;;;;-52
2021/04/24 04:37:35;;;;;;;2.10;1.90;;;;;;;18.82;41.62;101180.81;;;;-52
2021/04/24 04:40:35;;;;;;;2.10;1.90;;;;;;;18.82;41.58;101182.36;;;;-57
2021/04/24 04:43:35;;;;;;;1.99;1.79;;;;;;;18.81;41.60;101184.47;;;;-53
2021/04/24 04:46:35;;;;;;;2.21;1.79;;;;;;;18.80;41.58;101186.08;;;;-51
2021/04/24 04:49:35;;;;;;;2.01;1.89;;;;;;;18.80;41.63;101191.08;;;;-52
2021/04/24 04:52:34;;;;;;;2.09;1.78;;;;;;;18.79;41.69;101190.27;;;;-52
2021/04/24 04:55:35;;;;;;;2.19;1.90;;;;;;;18.78;41.59;101191.53;;;;-53
2021/04/24 04:58:35;;;;;;;2.00;1.80;;;;;;;18.79;41.63;101198.30;;;;-51
2021/04/24 05:01:35;;;;;;;2.01;1.80;;;;;;;18.78;41.65;101198.27;;;;-56
2021/04/24 05:04:35;;;;;;;2.01;1.87;;;;;;;18.77;41.60;101192.14;;;;-55
2021/04/24 05:07:35;;;;;;;2.47;1.99;;;;;;;18.77;41.62;101196.69;;;;-55
2021/04/24 05:10:35;;;;;;;1.84;1.74;;;;;;;18.77;41.63;101201.72;;;;-56
2021/04/24 05:13:35;;;;;;;2.07;1.90;;;;;;;18.76;41.63;101200.17;;;;-53
2021/04/24 05:16:35;;;;;;;2.09;1.85;;;;;;;18.76;41.61;101199.52;;;;-56
2021/04/24 05:19:35;;;;;;;1.90;1.80;;;;;;;18.76;41.58;101197.91;;;;-53
2021/04/24 05:22:35;;;;;;;1.85;1.75;;;;;;;18.77;41.63;101197.09;;;;-56
2021/04/24 05:25:35;;;;;;;1.99;1.80;;;;;;;18.78;41.61;101200.38;;;;-56
2021/04/24 05:28:35;;;;;;;2.07;1.81;;;;;;;18.80;41.67;101199.36;;;;-53
2021/04/24 05:31:35;;;;;;;2.03;1.86;;;;;;;18.82;41.72;101200.42;;;;-56
2021/04/24 05:34:34;;;;;;;1.77;1.67;;;;;;;18.84;41.71;101200.42;;;;-56
2021/04/24 05:37:35;;;;;;;1.80;1.70;;;;;;;18.86;41.73;101196.66;;;;-56
2021/04/24 05:40:35;;;;;;;1.90;1.80;;;;;;;18.88;41.74;101197.02;;;;-51
2021/04/24 05:43:35;;;;;;;1.92;1.73;;;;;;;18.91;41.68;101201.89;;;;-57
2021/04/24 05:46:35;;;;;;;2.70;1.81;;;;;;;18.93;41.66;101199.73;;;;-56
2021/04/24 05:49:35;;;;;;;2.13;1.93;;;;;;;18.95;41.70;101200.67;;;;-57
2021/04/24 05:52:35;;;;;;;1.99;1.79;;;;;;;18.98;41.70;101200.56;;;;-53
2021/04/24 05:55:35;;;;;;;1.93;1.71;;;;;;;19.02;41.64;101203.48;;;;-53
2021/04/24 05:58:35;;;;;;;2.09;1.74;;;;;;;19.03;41.70;101204.66;;;;-52
2021/04/24 06:01:35;;;;;;;2.07;1.91;;;;;;;19.06;41.66;101205.84;;;;-55
2021/04/24 06:04:34;;;;;;;5.48;3.33;;;;;;;18.78;39.17;101209.07;;;;-50
2021/04/24 06:07:35;;;;;;;6.65;4.62;;;;;;;18.63;36.46;101209.13;;;;-56
2021/04/24 06:10:35;;;;;;;5.61;3.99;;;;;;;18.54;37.63;101206.27;;;;-60
2021/04/24 06:13:35;;;;;;;8.69;3.72;;;;;;;18.60;38.71;101206.31;;;;-52
2021/04/24 06:16:35;;;;;;;7.03;3.65;;;;;;;18.69;39.37;101204.47;;;;-52
2021/04/24 06:19:35;;;;;;;4.31;3.30;;;;;;;18.76;39.83;101204.08;;;;-50
2021/04/24 06:22:35;;;;;;;4.99;3.37;;;;;;;18.82;40.18;101202.91;;;;-53
2021/04/24 06:25:34;;;;;;;4.07;3.10;;;;;;;18.88;40.24;101200.02;;;;-50
2021/04/24 06:28:35;;;;;;;6.17;3.18;;;;;;;18.92;40.19;101199.86;;;;-51
2021/04/24 06:31:35;;;;;;;4.85;3.06;;;;;;;18.94;40.30;101202.83;;;;-51
2021/04/24 06:34:35;;;;;;;4.29;3.19;;;;;;;18.96;40.37;101205.23;;;;-51
2021/04/24 06:37:34;;;;;;;5.91;3.01;;;;;;;18.98;40.36;101203.23;;;;-51
2021/04/24 06:40:35;;;;;;;3.18;2.71;;;;;;;19.00;40.46;101203.69;;;;-51
2021/04/24 06:43:35;;;;;;;4.11;2.74;;;;;;;19.02;40.47;101206.25;;;;-51
2021/04/24 06:46:34;;;;;;;3.49;2.97;;;;;;;19.02;40.49;101202.27;;;;-51
2021/04/24 06:49:35;;;;;;;3.59;2.88;;;;;;;19.03;40.51;101206.20;;;;-51
2021/04/24 06:52:35;;;;;;;3.55;2.79;;;;;;;19.04;40.54;101203.45;;;;-51
2021/04/24 06:55:35;;;;;;;3.53;2.85;;;;;;;19.04;40.59;101203.36;;;;-51
2021/04/24 06:58:35;;;;;;;3.08;2.70;;;;;;;19.04;40.60;101203.13;;;;-49
2021/04/24 07:01:35;;;;;;;4.07;2.73;;;;;;;19.06;40.68;101204.54;;;;-49
2021/04/24 07:04:35;;;;;;;3.15;2.85;;;;;;;19.06;40.65;101201.94;;;;-49
2021/04/24 07:07:35;;;;;;;2.98;2.64;;;;;;;19.06;40.66;101197.80;;;;-55
2021/04/24 07:10:35;;;;;;;2.98;2.55;;;;;;;19.07;40.72;101195.20;;;;-54
2021/04/24 07:13:35;;;;;;;2.81;2.57;;;;;;;19.07;40.69;101191.70;;;;-51
2021/04/24 07:16:35;;;;;;;5.11;2.92;;;;;;;19.06;40.70;101192.03;;;;-57
2021/04/24 07:19:34;;;;;;;3.03;2.65;;;;;;;19.05;40.67;101191.95;;;;-60
2021/04/24 07:22:35;;;;;;;4.17;2.75;;;;;;;19.04;40.59;101189.71;;;;-55
2021/04/24 07:25:35;;;;;;;3.07;2.73;;;;;;;19.05;40.56;101188.26;;;;-59
2021/04/24 07:28:35;;;;;;;5.05;2.73;;;;;;;19.04;40.59;101184.77;;;;-60
2021/04/24 07:31:35;;;;;;;5.08;2.83;;;;;;;19.05;40.55;101185.73;;;;-58
2021/04/24 07:34:35;;;;;;;4.44;2.99;;;;;;;19.05;40.55;101181.92;;;;-56
2021/04/24 07:37:35;;;;;;;3.52;2.71;;;;;;;19.06;40.58;101184.55;;;;-54
2021/04/24 07:40:34;;;;;;;3.20;2.57;;;;;;;19.06;40.70;101182.85;;;;-50
2021/04/24 07:43:36;;;;;;;3.91;2.79;;;;;;;19.09;40.66;101185.28;;;;-56
2021/04/24 07:46:35;;;;;;;5.49;2.59;;;;;;;19.09;40.73;101187.13;;;;-57
2021/04/24 07:49:35;;;;;;;3.61;2.69;;;;;;;19.10;40.83;101188.94;;;;-51
2021/04/24 07:52:35;;;;;;;5.27;2.70;;;;;;;19.10;41.03;101189.43;;;;-51
2021/04/24 07:55:35;;;;;;;4.61;2.57;;;;;;;19.11;41.06;101186.02;;;;-54
2021/04/24 07:58:35;;;;;;;4.35;2.71;;;;;;;19.14;41.16;101185.61;;;;-52
2021/04/24 08:01:35;;;;;;;5.39;2.69;;;;;;;19.19;40.91;101184.23;;;;-60
2021/04/24 08:04:34;;;;;;;5.16;2.73;;;;;;;19.22;41.40;101182.36;;;;-51
2021/04/24 08:07:35;;;;;;;3.33;2.82;;;;;;;19.25;41.44;101178.98;;;;-58
2021/04/24 08:10:35;;;;;;;4.39;2.65;;;;;;;19.29;41.39;101182.48;;;;-60
2021/04/24 08:13:35;;;;;;;5.31;2.81;;;;;;;19.33;41.30;101181.82;;;;-61
2021/04/24 08:16:35;;;;;;;4.68;2.70;;;;;;;19.40;41.31;101183.48;;;;-54
2021/04/24 08:19:35;;;;;;;4.23;2.47;;;;;;;19.43;41.40;101182.66;;;;-51
2021/04/24 08:22:35;;;;;;;4.73;2.83;;;;;;;19.44;41.24;101179.89;;;;-52
2021/04/24 08:25:34;;;;;;;3.79;2.53;;;;;;;19.45;41.21;101176.92;;;;-52
2021/04/24 08:28:35;;;;;;;5.77;2.95;;;;;;;19.45;41.03;101174.32;;;;-50
2021/04/24 08:31:35;;;;;;;4.88;2.63;;;;;;;19.47;41.40;101176.06;;;;-54
2021/04/24 08:34:35;;;;;;;2.88;2.61;;;;;;;19.48;41.35;101165.17;;;;-59
2021/04/24 08:37:35;;;;;;;3.22;2.72;;;;;;;19.49;41.36;101163.74;;;;-54
2021/04/24 08:40:35;;;;;;;5.18;2.59;;;;;;;19.54;41.44;101164.31;;;;-59
2021/04/24 08:43:35;;;;;;;2.97;2.62;;;;;;;19.57;41.22;101160.80;;;;-58
2021/04/24 08:46:34;;;;;;;3.52;2.55;;;;;;;19.59;41.25;101162.63;;;;-59
2021/04/24 08:49:34;;;;;;;3.94;2.60;;;;;;;19.63;41.22;101159.81;;;;-59
2021/04/24 08:52:35;;;;;;;4.74;2.57;;;;;;;19.66;41.14;101161.27;;;;-54
2021/04/24 08:55:35;;;;;;;4.19;2.59;;;;;;;19.69;41.06;101157.72;;;;-53
2021/04/24 08:58:35;;;;;;;3.87;2.55;;;;;;;19.70;41.05;101157.75;;;;-53
2021/04/24 09:01:34;;;;;;;4.21;2.50;;;;;;;19.72;41.05;101155.70;;;;-53
2021/04/24 09:04:35;;;;;;;4.04;2.66;;;;;;;19.74;41.08;101153.79;;;;-55
2021/04/24 09:07:35;;;;;;;2.63;2.25;;;;;;;19.75;41.01;101150.53;;;;-60
2021/04/24 09:10:34;;;;;;;4.84;2.74;;;;;;;19.77;41.06;101148.21;;;;-55
2021/04/24 09:13:35;;;;;;;2.94;2.34;;;;;;;19.78;41.00;101147.19;;;;-55
2021/04/24 09:16:35;;;;;;;3.03;2.47;;;;;;;19.81;41.00;101145.34;;;;-56
2021/04/24 09:19:35;;;;;;;2.83;2.35;;;;;;;19.82;41.04;101140.42;;;;-55
2021/04/24 09:22:35;;;;;;;2.47;2.19;;;;;;;19.83;40.99;101136.92;;;;-55
2021/04/24 09:25:35;;;;;;;3.31;2.58;;;;;;;19.86;40.96;101135.44;;;;-54
2021/04/24 09:28:35;;;;;;;3.04;2.49;;;;;;;19.87;40.92;101134.55;;;;-53
2021/04/24 09:31:36;;;;;;;3.36;2.41;;;;;;;19.88;40.91;101130.52;;;;-53
2021/04/24 09:34:35;;;;;;;3.78;2.41;;;;;;;19.89;40.90;101123.52;;;;-53
2021/04/24 09:37:35;;;;;;;2.83;2.29;;;;;;;19.91;40.92;101119.64;;;;-53
2021/04/24 09:40:35;;;;;;;2.45;2.22;;;;;;;19.92;40.86;101114.27;;;;-54
2021/04/24 09:43:35;;;;;;;2.95;2.12;;;;;;;19.93;40.92;101113.90;;;;-60
2021/04/24 09:46:35;;;;;;;2.83;2.33;;;;;;;19.95;40.94;101114.82;;;;-60
2021/04/24 09:49:35;;;;;;;3.79;2.19;;;;;;;19.95;40.81;101106.94;;;;-53
2021/04/24 09:52:34;;;;;;;2.81;2.27;;;;;;;19.96;40.82;101104.41;;;;-55
2021/04/24 09:55:35;;;;;;;2.31;2.11;;;;;;;19.98;40.88;101103.30;;;;-53
2021/04/24 09:58:35;;;;;;;3.37;2.23;;;;;;;20.00;40.87;101103.49;;;;-54
2021/04/24 10:01:37;;;;;;;2.40;2.20;;;;;;;20.01;40.87;101100.52;;;;-54
2021/04/24 10:04:34;;;;;;;2.41;2.19;;;;;;;20.02;40.86;101097.98;;;;-55
2021/04/24 10:07:35;;;;;;;2.84;2.36;;;;;;;20.04;40.91;101092.65;;;;-60
2021/04/24 10:10:35;;;;;;;2.43;2.20;;;;;;;20.03;40.78;101088.09;;;;-59
2021/04/24 10:13:34;;;;;;;4.37;2.10;;;;;;;20.05;40.84;101087.31;;;;-52
2021/04/24 10:16:35;;;;;;;2.20;2.00;;;;;;;20.06;40.88;101084.22;;;;-52
2021/04/24 10:19:36;;;;;;;2.30;2.10;;;;;;;20.07;40.77;101078.95;;;;-55
2021/04/24 10:22:35;;;;;;;2.28;2.08;;;;;;;20.08;40.91;101077.98;;;;-55
2021/04/24 10:25:34;;;;;;;3.87;2.29;;;;;;;20.09;40.87;101068.81;;;;-56
2021/04/24 10:28:35;;;;;;;3.17;2.28;;;;;;;20.10;40.86;101073.94;;;;-53
2021/04/24 10:31:35;;;;;;;3.87;2.01;;;;;;;20.11;40.85;101071.69;;;;-55
2021/04/24 10:34:34;;;;;;;2.61;2.18;;;;;;;20.12;40.77;101067.30;;;;-53
2021/04/24 10:37:34;;;;;;;2.16;1.98;;;;;;;20.13;40.83;101059.48;;;;-53
2021/04/24 10:40:35;;;;;;;2.15;1.95;;;;;;;20.13;40.72;101055.77;;;;-55
2021/04/24 10:43:35;;;;;;;2.35;2.07;;;;;;;20.14;40.82;101057.88;;;;-55
2021/04/24 10:46:34;;;;;;;3.38;2.07;;;;;;;20.16;40.75;101053.92;;;;-60
2021/04/24 10:49:35;;;;;;;3.95;2.15;;;;;;;20.17;40.99;101046.27;;;;-58
2021/04/24 10:52:35;;;;;;;3.17;2.07;;;;;;;20.20;41.30;101043.72;;;;-56
2021/04/24 10:55:34;;;;;;;3.19;2.20;;;;;;;20.20;40.76;101039.33;;;;-56
2021/04/24 10:58:34;;;;;;;5.70;1.99;;;;;;;20.21;40.81;101036.64;;;;-56
2021/04/24 11:01:34;;;;;;;2.25;2.00;;;;;;;20.21;40.81;101033.05;;;;-56
2021/04/24 11:04:35;;;;;;;3.16;2.10;;;;;;;20.23;40.93;101034.39;;;;-56
2021/04/24 11:07:34;;;;;;;2.51;2.15;;;;;;;20.24;40.71;101023.75;;;;-52
2021/04/24 11:10:34;;;;;;;3.59;2.43;;;;;;;20.22;40.41;101027.23;;;;-52
2021/04/24 11:13:35;;;;;;;5.30;2.61;;;;;;;20.20;40.33;101021.42;;;;-52
2021/04/24 11:16:34;;;;;;;4.32;2.71;;;;;;;20.18;40.53;101019.20;;;;-52
2021/04/24 11:19:34;;;;;;;4.70;2.69;;;;;;;20.16;40.67;101007.45;;;;-52
2021/04/24 11:22:35;;;;;;;5.46;2.69;;;;;;;20.17;40.86;101007.53;;;;-50
2021/04/24 11:25:35;;;;;;;4.27;2.75;;;;;;;20.24;41.52;101005.77;;;;-51
2021/04/24 11:28:35;;;;;;;4.07;2.33;;;;;;;20.28;41.67;101000.13;;;;-51
2021/04/24 11:31:35;;;;;;;3.67;2.43;;;;;;;20.31;41.22;100998.67;;;;-52
2021/04/24 11:34:35;;;;;;;3.67;2.40;;;;;;;20.33;41.12;100996.42;;;;-52
2021/04/24 11:37:35;;;;;;;2.74;2.37;;;;;;;20.32;40.97;100988.94;;;;-52
2021/04/24 11:40:34;;;;;;;3.22;2.27;;;;;;;20.33;40.88;100986.81;;;;-52
2021/04/24 11:43:35;;;;;;;4.12;2.41;;;;;;;20.36;41.53;100984.80;;;;-63
2021/04/24 11:46:35;;;;;;;2.60;2.10;;;;;;;20.39;41.67;100983.38;;;;-60
2021/04/24 11:49:34;;;;;;;3.88;2.29;;;;;;;20.43;41.96;100980.50;;;;-54
2021/04/24 11:52:35;;;;;;;3.87;2.31;;;;;;;20.46;42.14;100976.06;;;;-60
2021/04/24 11:55:36;;;;;;;3.61;2.35;;;;;;;20.47;41.46;100976.23;;;;-60
2021/04/24 11:58:34;;;;;;;3.74;2.23;;;;;;;20.47;41.50;100980.21;;;;-53
2021/04/24 12:01:34;;;;;;;3.92;2.36;;;;;;;20.50;41.54;100976.89;;;;-58
2021/04/24 12:04:35;;;;;;;4.52;1.97;;;;;;;20.48;41.29;100974.87;;;;-57
2021/04/24 12:07:35;;;;;;;3.38;2.11;;;;;;;20.48;41.17;100965.50;;;;-57
2021/04/24 12:10:34;;;;;;;3.03;2.13;;;;;;;20.48;41.15;100967.67;;;;-57
2021/04/24 12:13:35;;;;;;;4.15;2.19;;;;;;;20.47;41.11;100961.00;;;;-52
2021/04/24 12:16:35;;;;;;;4.71;2.13;;;;;;;20.47;41.08;100958.80;;;;-57
2021/04/24 12:19:36;;;;;;;5.16;2.28;;;;;;;20.47;41.09;100952.05;;;;-57
2021/04/24 12:22:34;;;;;;;2.56;2.04;;;;;;;20.47;41.02;100948.38;;;;-58
2021/04/24 12:25:35;;;;;;;2.40;2.09;;;;;;;20.46;41.05;100944.48;;;;-58
2021/04/24 12:28:35;;;;;;;2.39;2.06;;;;;;;20.45;40.96;100942.82;;;;-57
2021/04/24 12:31:34;;;;;;;2.43;1.97;;;;;;;20.46;41.04;100936.34;;;;-58
2021/04/24 12:34:34;;;;;;;3.63;2.16;;;;;;;20.45;40.98;100933.05;;;;-54
2021/04/24 12:37:35;;;;;;;2.97;2.07;;;;;;;20.46;41.00;100931.77;;;;-53
2021/04/24 12:40:34;;;;;;;3.31;1.96;;;;;;;20.46;41.04;100930.20;;;;-56
2021/04/24 12:43:34;;;;;;;3.55;2.12;;;;;;;20.46;40.98;100928.73;;;;-56
2021/04/24 12:46:34;;;;;;;2.67;2.05;;;;;;;20.46;40.96;100926.48;;;;-58
2021/04/24 12:49:35;;;;;;;2.85;1.99;;;;;;;20.47;40.92;100923.30;;;;-58
2021/04/24 12:52:34;;;;;;;2.73;2.04;;;;;;;20.48;40.96;100922.41;;;;-53
2021/04/24 12:55:35;;;;;;;2.53;2.09;;;;;;;20.48;40.93;100917.06;;;;-53
2021/04/24 12:58:35;;;;;;;3.64;1.90;;;;;;;20.48;40.94;100908.19;;;;-53
2021/04/24 13:01:35;;;;;;;2.54;1.95;;;;;;;20.49;40.96;100912.33;;;;-58
2021/04/24 13:04:34;;;;;;;2.00;1.79;;;;;;;20.48;40.93;100902.32;;;;-58
2021/04/24 13:07:35;;;;;;;3.12;2.00;;;;;;;20.50;40.96;100902.48;;;;-58
2021/04/24 13:10:35;;;;;;;2.41;1.90;;;;;;;20.49;40.93;100898.66;;;;-52
2021/04/24 13:13:34;;;;;;;2.22;1.90;;;;;;;20.50;40.93;100898.27;;;;-53
2021/04/24 13:16:34;;;;;;;2.60;1.97;;;;;;;20.51;40.95;100888.91;;;;-53
2021/04/24 13:19:35;;;;;;;8.69;2.30;;;;;;;20.49;41.16;100892.62;;;;-55
2021/04/24 13:22:34;;;;;;;8.50;2.80;;;;;;;20.46;40.55;100888.55;;;;-59
2021/04/24 13:25:34;;;;;;;7.34;4.13;;;;;;;20.44;40.58;100886.48;;;;-59
2021/04/24 13:28:34;;;;;;;6.12;4.42;;;;;;;20.47;41.05;100883.81;;;;-56
2021/04/24 13:31:35;;;;;;;6.91;4.12;;;;;;;20.52;41.30;100880.92;;;;-50
2021/04/24 13:34:34;;;;;;;8.87;3.89;;;;;;;20.53;41.02;100881.43;;;;-52
2021/04/24 13:37:34;;;;;;;4.65;3.47;;;;;;;20.55;40.91;100875.02;;;;-52
2021/04/24 13:40:35;;;;;;;8.55;3.25;;;;;;;20.54;40.93;100869.54;;;;-53
2021/04/24 13:43:35;;;;;;;6.95;3.55;;;;;;;20.54;40.86;100872.55;;;;-52
2021/04/24 13:46:34;;;;;;;6.30;3.47;;;;;;;20.54;40.94;100862.53;;;;-51
2021/04/24 13:49:34;;;;;;;5.60;3.09;;;;;;;20.55;40.90;100862.15;;;;-50
2021/04/24 13:52:35;;;;;;;5.11;3.25;;;;;;;20.55;40.82;100851.56;;;;-53
2021/04/24 13:55:34;;;;;;;6.81;3.07;;;;;;;20.56;40.88;100845.86;;;;-58
2021/04/24 13:58:34;;;;;;;4.03;2.89;;;;;;;20.57;40.81;100844.02;;;;-50
2021/04/24 14:01:34;;;;;;;4.25;2.97;;;;;;;20.57;40.77;100848.24;;;;-58
2021/04/24 14:04:35;;;;;;;4.06;3.10;;;;;;;20.57;40.81;100840.51;;;;-58
2021/04/24 14:07:34;;;;;;;5.12;2.95;;;;;;;20.57;40.85;100845.56;;;;-59
2021/04/24 14:10:34;;;;;;;4.03;2.87;;;;;;;20.58;40.86;100842.81;;;;-51
2021/04/24 14:13:34;;;;;;;3.97;2.69;;;;;;;20.58;40.86;100833.58;;;;-52
2021/04/24 14:16:36;;;;;;;4.29;2.71;;;;;;;20.58;40.84;100832.94;;;;-52
2021/04/24 14:19:36;;;;;;;3.63;2.85;;;;;;;20.59;40.84;100827.13;;;;-58
2021/04/24 14:22:34;;;;;;;3.09;2.56;;;;;;;20.59;40.78;100829.65;;;;-57
2021/04/24 14:25:35;;;;;;;4.96;2.85;;;;;;;20.58;40.87;100822.62;;;;-57
2021/04/24 14:28:34;;;;;;;3.70;2.85;;;;;;;20.60;40.85;100823.53;;;;-52
2021/04/24 14:31:34;;;;;;;4.22;2.65;;;;;;;20.59;40.74;100811.81;;;;-52
2021/04/24 14:34:36;;;;;;;3.77;2.69;;;;;;;20.60;40.82;100814.58;;;;-52
2021/04/24 14:37:35;;;;;;;3.44;2.79;;;;;;;20.60;40.83;100815.72;;;;-52
2021/04/24 14:40:34;;;;;;;3.35;2.62;;;;;;;20.60;40.75;100814.25;;;;-52
2021/04/24 14:43:34;;;;;;;4.15;2.73;;;;;;;20.64;41.02;100818.77;;;;-48
2021/04/24 14:46:35;;;;;;;5.69;2.85;;;;;;;20.64;42.27;100817.38;;;;-49
2021/04/24 14:49:34;;;;;;;5.34;2.80;;;;;;;20.66;41.68;100813.16;;;;-50
2021/04/24 14:52:36;;;;;;;6.82;2.84;;;;;;;20.68;41.76;100811.55;;;;-46
2021/04/24 14:55:35;;;;;;;3.82;2.64;;;;;;;20.72;42.38;100813.60;;;;-57
2021/04/24 14:58:35;;;;;;;3.52;2.62;;;;;;;20.75;42.79;100813.45;;;;-51
2021/04/24 15:01:34;;;;;;;3.64;2.70;;;;;;;20.79;42.84;100810.80;;;;-50
2021/04/24 15:04:35;;;;;;;4.83;2.65;;;;;;;20.81;43.08;100805.67;;;;-49
2021/04/24 15:07:35;;;;;;;3.55;2.46;;;;;;;20.83;42.76;100808.30;;;;-54
2021/04/24 15:10:35;;;;;;;5.58;2.59;;;;;;;20.84;42.68;100805.88;;;;-55
2021/04/24 15:13:34;;;;;;;4.25;2.63;;;;;;;20.87;42.91;100804.89;;;;-56
2021/04/24 15:16:35;;;;;;;4.86;2.59;;;;;;;20.84;41.95;100802.70;;;;-56
2021/04/24 15:19:34;;;;;;;5.65;2.60;;;;;;;20.83;41.67;100804.47;;;;-57
2021/04/24 15:22:34;;;;;;;3.91;2.60;;;;;;;20.80;41.35;100804.30;;;;-54
2021/04/24 15:25:35;;;;;;;4.83;2.40;;;;;;;20.79;41.65;100791.73;;;;-56
2021/04/24 15:28:34;;;;;;;5.01;2.38;;;;;;;20.78;41.72;100793.29;;;;-50
2021/04/24 15:31:35;;;;;;;3.16;2.36;;;;;;;20.77;41.51;100794.65;;;;-56
2021/04/24 15:34:34;;;;;;;7.33;2.60;;;;;;;20.77;41.61;100791.25;;;;-59
2021/04/24 15:37:34;;;;;;;5.03;2.66;;;;;;;20.77;40.93;100790.28;;;;-56
2021/04/24 15:40:35;;;;;;;2.93;2.38;;;;;;;20.77;41.46;100789.35;;;;-51
2021/04/24 15:43:35;;;;;;;3.12;2.45;;;;;;;20.77;41.36;100782.05;;;;-53
2021/04/24 15:46:34;;;;;;;4.22;2.54;;;;;;;20.78;41.33;100780.34;;;;-56
2021/04/24 15:49:34;;;;;;;4.97;2.64;;;;;;;20.80;41.37;100779.04;;;;-59
2021/04/24 15:52:35;;;;;;;3.73;2.70;;;;;;;20.82;41.47;100782.07;;;;-51
2021/04/24 15:55:34;;;;;;;6.13;2.63;;;;;;;20.83;41.37;100777.09;;;;-53
2021/04/24 15:58:34;;;;;;;4.29;2.53;;;;;;;20.84;41.37;100776.63;;;;-51
2021/04/24 16:01:34;;;;;;;4.18;2.28;;;;;;;20.86;41.76;100774.52;;;;-55
2021/04/24 16:04:35;;;;;;;2.99;2.43;;;;;;;20.87;41.58;100774.83;;;;-53
2021/04/24 16:07:34;;;;;;;4.11;2.57;;;;;;;20.90;41.59;100778.12;;;;-47
2021/04/24 16:10:37;;;;;;;3.47;2.51;;;;;;;20.91;41.56;100778.28;;;;-51
2021/04/24 16:13:34;;;;;;;3.01;2.39;;;;;;;20.91;41.45;100783.41;;;;-58
2021/04/24 16:16:34;;;;;;;3.62;2.24;;;;;;;20.93;41.52;100785.30;;;;-50
2021/04/24 16:19:34;;;;;;;3.96;2.30;;;;;;;20.93;41.29;100783.11;;;;-60
2021/04/24 16:22:34;;;;;;;5.16;2.49;;;;;;;20.95;41.47;100789.71;;;;-60
2021/04/24 16:25:35;;;;;;;4.47;2.31;;;;;;;20.96;41.42;100786.45;;;;-51
2021/04/24 16:28:34;;;;;;;3.95;2.47;;;;;;;20.96;41.34;100788.89;;;;-52
2021/04/24 16:31:34;;;;;;;2.88;2.32;;;;;;;20.97;41.39;100791.19;;;;-52
2021/04/24 16:34:35;;;;;;;4.16;2.39;;;;;;;20.96;41.29;100793.97;;;;-54
2021/04/24 16:37:34;;;;;;;3.55;2.61;;;;;;;20.96;41.03;100792.99;;;;-52
2021/04/24 16:40:34;;;;;;;3.33;2.49;;;;;;;20.97;41.32;100785.73;;;;-55
2021/04/24 16:43:34;;;;;;;2.47;2.25;;;;;;;20.99;41.25;100786.80;;;;-51